McCarran International, NV

2:56 AM PST en Noviembre 28, 2014 (GMT -0800)
Enterprise | Change Station
CLOSE
Current Station
Estación meteorológica personal
Location: Las Vegas, NV
Altura: 2338 ft
Estaciones meteorológicas cercanas

Alt 2338 ft 36.05 °N, 115.21 °W | Updated 7 seconds ago

Scattered Clouds
Nubes dispersas
44.4 ° F
Sensación térmica 44 ° F
N
0.0
Viento Variable Viento desde Norte
Gusts 0.0 mph

Hoy
Alta -- | Baja -- ° F
--% Posibilidad de precipitaciones
Ayer
Alta -- | Baja -- ° F
Precip. -- pul
6:30 AM 4:26 PM
Creciente, 39% visible
Presión 30.08 pul
Visibilidad 10.0 Millas
Nubes Nubes dispersas 22000 ft
Vientos helados 44 ° F
Punto de rocío 23 ° F
Humedad 42%
Precipitaciones 0.00 pul
Espesor de la nieve No disponible.
UV 0 de una escala de 12
Polen 2.90 de una escala de 12
Calidad del aire No disponible.
Flu Activity No disponible.
METAR KLAS 280956Z 21005KT 10SM SCT220 08/M07 A3009 RMK AO2 SLP184 T00781067

More Conditions Fewer Conditions

Presión 30.08 pul
Visibilidad 10.0 Millas
Nubes Nubes dispersas 22000 ft
Vientos helados 44 ° F
Punto de rocío 23 ° F
Humedad 42%
Precipitaciones 0.00 pul
Espesor de la nieve No disponible.
UV 0 de una escala de 12
Polen 2.90 de una escala de 12
Calidad del aire No disponible.
Flu Activity No disponible.
METAR KLAS 280956Z 21005KT 10SM SCT220 08/M07 A3009 RMK AO2 SLP184 T00781067

More Conditions Fewer Conditions

10-Day Weather Forecast

Almanac

Astronomía

Nov. 28, 2014 Salida Puesta
Hora real
Crepúsculo civil
Crepúsculo náutico
Crepúsculo astronómico
Luna
Horas de luz
Horas de luz
Tomorrow will be .
, % of the Moon is Illuminated

Extremos de hoy

Máximos del estado Bajos del estado

Community

WunderPhotos

Upload Photos

1,774,192 ¡fotos cargadas!

WunderBlogs® & News

Nearby

Calidad del aire

  Calidad del aire Índice AQ Contaminante
Not available.

Grosos de nieve

Estación Profundido Altura

Actividad de terremotos

Ciudad Distance Mag. Tiempo y dato
Magnitud mínima muestra es 2,5.

Temperaturas de aguas costeras

Lugar Temperatura

Estaciones meteorológicas cercanas